Observations for Trim Market St
| Time | AQI | Temp °C | Hum % | Pres Pa | CO μg/m³ | H₂S μg/m³ | NO μg/m³ | NO₂ μg/m³ | O₃ μg/m³ | SO₂ μg/m³ | PM1 μg/m³ | PM2.5 μg/m³ | PM10 μg/m³ |
|---|---|---|---|---|---|---|---|---|---|---|---|---|---|
| Sunday 23 August 2026 | |||||||||||||
| 13:07 | 2 | 26 | 34 | 65,772 | 0 | 0 | 1.13 | 15.73 | 75.07 | 0 | 0 | 2.61 | 2.87 |
| 13:06 | 2 | 26 | 34 | 65,756 | 0 | 0 | 1.12 | 13.96 | 80.33 | 0 | 0 | 3.15 | 3.46 |
| 13:05 | 2 | 26.1 | 34 | 65,760 | 0.05 | 0 | 1.23 | 16.77 | 81.24 | 0 | 0 | 3.14 | 3.45 |
| 13:04 | 2 | 26.1 | 34 | 65,768 | 0 | 0 | 1.22 | 10.47 | 76.42 | 0 | 1.43 | 4.2 | 4.62 |
| 13:02 | 2 | 26.1 | 34 | 65,778 | 0.01 | 0 | 1.14 | 4.23 | 67.1 | 0 | 0.71 | 3.68 | 4.16 |
| 13:01 | 2 | 26.1 | 34 | 65,789 | 0.02 | 0 | 1.14 | 12.43 | 74.98 | 0 | 0 | 3.67 | 4.03 |
| 13:00 | 2 | 26.1 | 34 | 65,799 | 0.02 | 0 | 1 | 12.64 | 74.77 | 0 | 0.71 | 4.74 | 5.22 |
| 12:58 | 2 | 26 | 34 | 65,772 | 0 | 0 | 1.09 | 11.05 | 75.88 | 0 | 1.43 | 3.66 | 4.17 |
| 12:57 | 2 | 26 | 34 | 65,750 | 0.08 | 0 | 1.11 | 12.8 | 74.31 | 0 | 0.71 | 4.19 | 4.61 |
| 12:56 | 2 | 25.9 | 35 | 65,752 | 0.02 | 0 | 1.2 | 13.18 | 73.95 | 0 | 0.71 | 3.65 | 4.01 |
| 12:54 | 2 | 25.8 | 35 | 65,758 | 0.05 | 0 | 1.27 | 13.59 | 73.67 | 0 | 0 | 3.1 | 3.41 |
| 12:53 | 2 | 25.8 | 35 | 65,732 | 0.06 | 0 | 1.19 | 9.06 | 75.69 | 0 | 1.43 | 7.39 | 8.36 |
| 12:52 | 2 | 25.8 | 35 | 65,730 | 0.03 | 0 | 1.16 | 12.88 | 73.85 | 0 | 0 | 3.1 | 3.42 |
| 12:51 | 2 | 25.8 | 35 | 65,724 | 0.08 | 0 | 1.07 | 10.71 | 75.58 | 0 | 0 | 3.63 | 4 |
| 12:47 | 2 | 25.6 | 35 | 65,744 | 0.14 | 0 | 1.38 | 13.47 | 73.55 | 0 | 0.71 | 4.69 | 5.16 |
| 12:46 | 2 | 25.6 | 35 | 65,744 | 0.13 | 0 | 1.35 | 15.09 | 72.49 | 0 | 0.71 | 3.62 | 3.98 |
| 12:43 | 2 | 25.4 | 36 | 65,726 | 0.4 | 0 | 1.21 | 11.59 | 73.89 | 0 | 1.43 | 3.61 | 3.97 |
| 12:39 | 2 | 25.2 | 36 | 65,666 | 0.16 | 0 | 1.29 | 12.62 | 72.51 | 0 | 0.71 | 4.12 | 4.53 |
| 12:32 | 2 | 24.6 | 37 | 65,639 | 0.14 | 0 | 1.47 | 10.16 | 73.98 | 0 | 0.71 | 4.08 | 4.49 |
| 12:31 | 2 | 24.5 | 37 | 65,645 | 0.17 | 0 | 1.63 | 11.4 | 71 | 0 | 1.43 | 4.07 | 4.47 |